SDM7 OMDB-ULLI
Flight info
| Callsign | SDM7 |
|---|---|
| Flight time | 4h 42m |
| Altitude | 40000 |
| Route | DAVMO DCT GABKO DCT ULDUS DCT BUMAR/K0891F400 DCT MONAB DCT ODATI DCT BOKRU DCT DITOT DCT GUBLI DCT GENPA GENPA1V |
| Aircraft | B748/H-SDE3FGHIM1M2RWXY/LB1 |
Departure
| Time | 2026-05-06 08:57 |
|---|---|
| Airport | Dubai International Airport (OMDB) |
Arrival
| Time | 2026-05-06 13:40 |
|---|---|
| Airport | Pulkovo Airport (ULLI) |
| Time | Latitude | Longitude | Altitude | Speed | Heading |
|---|---|---|---|---|---|
| 2026-05-06 08:42 | 25.25492 | 55.35209 | 18 ft | 0 kts | 210° |
| 2026-05-06 08:51 | 25.25508 | 55.35219 | 18 ft | 4 kts | 208° |
| 2026-05-06 08:51 | 25.25532 | 55.35233 | 19 ft | 4 kts | 198° |
| 2026-05-06 08:51 | 25.25556 | 55.35240 | 18 ft | 4 kts | 175° |
| 2026-05-06 08:52 | 25.25573 | 55.35240 | 20 ft | 4 kts | 134° |
| 2026-05-06 08:52 | 25.25577 | 55.35236 | 19 ft | 2 kts | 121° |
| 2026-05-06 08:54 | 25.25576 | 55.35239 | 16 ft | 3 kts | 121° |
| 2026-05-06 08:54 | 25.25548 | 55.35291 | 18 ft | 12 kts | 121° |
| 2026-05-06 08:55 | 25.25500 | 55.35401 | 17 ft | 20 kts | 110° |
| 2026-05-06 08:55 | 25.25468 | 55.35574 | 19 ft | 24 kts | 100° |
| 2026-05-06 08:55 | 25.25462 | 55.35729 | 16 ft | 16 kts | 60° |
| 2026-05-06 08:55 | 25.25518 | 55.35781 | 16 ft | 9 kts | 29° |
| 2026-05-06 08:56 | 25.25583 | 55.35832 | 17 ft | 11 kts | 53° |
| 2026-05-06 08:56 | 25.25591 | 55.35887 | 16 ft | 6 kts | 99° |
| 2026-05-06 08:56 | 25.25584 | 55.35905 | 19 ft | 0 kts | 121° |
| 2026-05-06 08:56 | 25.25570 | 55.35930 | 18 ft | 20 kts | 121° |
| 2026-05-06 08:57 | 25.25305 | 55.36405 | 17 ft | 125 kts | 121° |
| 2026-05-06 08:57 | 25.24697 | 55.37492 | 106 ft | 198 kts | 122° |
| 2026-05-06 08:57 | 25.23913 | 55.38835 | 789 ft | 214 kts | 126° |
| 2026-05-06 08:57 | 25.23130 | 55.40278 | 1435 ft | 225 kts | 116° |
| 2026-05-06 08:58 | 25.22948 | 55.42051 | 2162 ft | 247 kts | 82° |
| 2026-05-06 08:58 | 25.23692 | 55.43817 | 3036 ft | 267 kts | 52° |
| 2026-05-06 08:58 | 25.25231 | 55.45036 | 4121 ft | 279 kts | 19° |
| 2026-05-06 08:58 | 25.27136 | 55.45236 | 5829 ft | 280 kts | 351° |
| 2026-05-06 08:59 | 25.28997 | 55.44528 | 7311 ft | 288 kts | 334° |
| 2026-05-06 08:59 | 25.30792 | 55.43508 | 8843 ft | 292 kts | 335° |
| 2026-05-06 08:59 | 25.32678 | 55.42635 | 10299 ft | 296 kts | 343° |
| 2026-05-06 08:59 | 25.34724 | 55.42026 | 11202 ft | 322 kts | 349° |
| 2026-05-06 09:00 | 25.37035 | 55.41449 | 12002 ft | 350 kts | 347° |
| 2026-05-06 09:00 | 25.39447 | 55.40734 | 12773 ft | 377 kts | 345° |
| 2026-05-06 09:00 | 25.42023 | 55.39892 | 14040 ft | 383 kts | 345° |
| 2026-05-06 09:00 | 25.44608 | 55.39086 | 15276 ft | 390 kts | 345° |
| 2026-05-06 09:01 | 25.47253 | 55.38304 | 16462 ft | 397 kts | 345° |
| 2026-05-06 09:01 | 25.49950 | 55.37495 | 17643 ft | 405 kts | 344° |
| 2026-05-06 09:01 | 25.52684 | 55.36651 | 18720 ft | 412 kts | 343° |
| 2026-05-06 09:01 | 25.55461 | 55.35793 | 19772 ft | 417 kts | 343° |
| 2026-05-06 09:02 | 25.58284 | 55.34935 | 20784 ft | 424 kts | 343° |
| 2026-05-06 09:02 | 25.61148 | 55.34064 | 21802 ft | 430 kts | 343° |
| 2026-05-06 09:02 | 25.64014 | 55.33187 | 22776 ft | 436 kts | 343° |
| 2026-05-06 09:02 | 25.66959 | 55.32282 | 23674 ft | 442 kts | 342° |
| 2026-05-06 09:03 | 25.69943 | 55.31369 | 24502 ft | 447 kts | 342° |
| 2026-05-06 09:03 | 25.72959 | 55.30447 | 25318 ft | 452 kts | 342° |
| 2026-05-06 09:03 | 25.76005 | 55.29514 | 26122 ft | 457 kts | 341° |
| 2026-05-06 09:03 | 25.79084 | 55.28569 | 26902 ft | 462 kts | 341° |
| 2026-05-06 09:04 | 25.82196 | 55.27614 | 27651 ft | 466 kts | 340° |
| 2026-05-06 09:04 | 25.85341 | 55.26649 | 28409 ft | 471 kts | 340° |
| 2026-05-06 09:04 | 25.88518 | 55.25673 | 29156 ft | 476 kts | 340° |
| 2026-05-06 09:04 | 25.91719 | 55.24689 | 29883 ft | 481 kts | 340° |
| 2026-05-06 09:05 | 25.94961 | 55.23692 | 30481 ft | 486 kts | 339° |
| 2026-05-06 09:05 | 25.98234 | 55.22686 | 31074 ft | 490 kts | 339° |
| 2026-05-06 09:05 | 26.01536 | 55.21669 | 31649 ft | 495 kts | 339° |
| 2026-05-06 09:05 | 26.04869 | 55.20643 | 32205 ft | 499 kts | 339° |
| 2026-05-06 09:06 | 26.08232 | 55.19606 | 32752 ft | 504 kts | 339° |
| 2026-05-06 09:06 | 26.11625 | 55.18560 | 33269 ft | 508 kts | 339° |
| 2026-05-06 09:06 | 26.15047 | 55.17504 | 33791 ft | 513 kts | 339° |
| 2026-05-06 09:06 | 26.18495 | 55.16440 | 34232 ft | 517 kts | 339° |
| 2026-05-06 09:07 | 26.21971 | 55.15366 | 34688 ft | 520 kts | 339° |
| 2026-05-06 09:07 | 26.25470 | 55.14285 | 35156 ft | 523 kts | 339° |
| 2026-05-06 09:07 | 26.28971 | 55.13204 | 35668 ft | 521 kts | 339° |
| 2026-05-06 09:07 | 26.32460 | 55.12125 | 36203 ft | 519 kts | 339° |
| 2026-05-06 09:08 | 26.35937 | 55.11048 | 36717 ft | 518 kts | 339° |
| 2026-05-06 09:08 | 26.39404 | 55.09972 | 37225 ft | 516 kts | 339° |
| 2026-05-06 09:08 | 26.42861 | 55.08901 | 37704 ft | 515 kts | 339° |
| 2026-05-06 09:08 | 26.46308 | 55.07832 | 38200 ft | 514 kts | 338° |
| 2026-05-06 09:09 | 26.49748 | 55.06763 | 38643 ft | 513 kts | 338° |
| 2026-05-06 09:09 | 26.53182 | 55.05696 | 39024 ft | 512 kts | 338° |
| 2026-05-06 09:09 | 26.56611 | 55.04630 | 39407 ft | 511 kts | 339° |
| 2026-05-06 09:09 | 26.60038 | 55.03564 | 39769 ft | 511 kts | 339° |
| 2026-05-06 09:10 | 26.63443 | 55.02507 | 40470 ft | 503 kts | 339° |
| 2026-05-06 09:10 | 26.66816 | 55.01457 | 40852 ft | 505 kts | 339° |
| 2026-05-06 09:10 | 26.70179 | 55.00402 | 40865 ft | 512 kts | 339° |
| 2026-05-06 09:11 | 26.77102 | 54.98248 | 40861 ft | 514 kts | 339° |
| 2026-05-06 09:11 | 26.83952 | 54.96107 | 40874 ft | 514 kts | 339° |
| 2026-05-06 09:12 | 26.90833 | 54.93956 | 40878 ft | 514 kts | 339° |
| 2026-05-06 09:12 | 26.97718 | 54.91800 | 40883 ft | 514 kts | 338° |
| 2026-05-06 09:13 | 27.04605 | 54.89641 | 40889 ft | 514 kts | 338° |
| 2026-05-06 09:13 | 27.11491 | 54.87480 | 40892 ft | 514 kts | 338° |
| 2026-05-06 09:14 | 27.18370 | 54.85318 | 40898 ft | 513 kts | 338° |
| 2026-05-06 09:14 | 27.25250 | 54.83152 | 40900 ft | 514 kts | 338° |
| 2026-05-06 09:15 | 27.32135 | 54.80983 | 40908 ft | 514 kts | 338° |
| 2026-05-06 09:15 | 27.39015 | 54.78812 | 40906 ft | 513 kts | 338° |
| 2026-05-06 09:16 | 27.45898 | 54.76638 | 40897 ft | 514 kts | 338° |
| 2026-05-06 09:16 | 27.51620 | 54.74828 | 40898 ft | 514 kts | 338° |
| 2026-05-06 09:17 | 27.59618 | 54.72295 | 40925 ft | 514 kts | 338° |
| 2026-05-06 09:17 | 27.66500 | 54.70112 | 40942 ft | 514 kts | 338° |
| 2026-05-06 09:18 | 27.73388 | 54.67925 | 40957 ft | 514 kts | 338° |
| 2026-05-06 09:18 | 27.80278 | 54.65734 | 40961 ft | 514 kts | 337° |
| 2026-05-06 09:19 | 27.86046 | 54.63898 | 40962 ft | 514 kts | 337° |
| 2026-05-06 09:19 | 27.92936 | 54.61702 | 40962 ft | 515 kts | 337° |
| 2026-05-06 09:20 | 27.99783 | 54.59516 | 40968 ft | 514 kts | 337° |
| 2026-05-06 09:20 | 28.06676 | 54.57312 | 40975 ft | 515 kts | 337° |
| 2026-05-06 09:21 | 28.13562 | 54.55111 | 40982 ft | 514 kts | 337° |
| 2026-05-06 09:21 | 28.20444 | 54.52904 | 40989 ft | 514 kts | 336° |
| 2026-05-06 09:22 | 28.27323 | 54.50697 | 41001 ft | 514 kts | 336° |
| 2026-05-06 09:22 | 28.34193 | 54.48489 | 41008 ft | 514 kts | 336° |
| 2026-05-06 09:23 | 28.41073 | 54.46276 | 41015 ft | 513 kts | 336° |
| 2026-05-06 09:23 | 28.47943 | 54.44062 | 41024 ft | 513 kts | 336° |
| 2026-05-06 09:24 | 28.54802 | 54.41850 | 41039 ft | 513 kts | 336° |
| 2026-05-06 09:24 | 28.61661 | 54.39634 | 41053 ft | 512 kts | 336° |
| 2026-05-06 09:25 | 28.68514 | 54.37417 | 41069 ft | 512 kts | 336° |
| 2026-05-06 09:25 | 28.75361 | 54.35198 | 41091 ft | 511 kts | 336° |
| 2026-05-06 09:26 | 28.82204 | 54.32979 | 41092 ft | 511 kts | 336° |
| 2026-05-06 09:26 | 28.89028 | 54.30763 | 41111 ft | 510 kts | 336° |
| 2026-05-06 09:27 | 28.95857 | 54.28540 | 41130 ft | 510 kts | 336° |
| 2026-05-06 09:27 | 29.02682 | 54.26319 | 41139 ft | 510 kts | 335° |
| 2026-05-06 09:28 | 29.09492 | 54.24097 | 41150 ft | 509 kts | 335° |
| 2026-05-06 09:28 | 29.16303 | 54.21869 | 41161 ft | 510 kts | 336° |
| 2026-05-06 09:29 | 29.23120 | 54.19645 | 41157 ft | 509 kts | 335° |
| 2026-05-06 09:29 | 29.29927 | 54.17412 | 41164 ft | 509 kts | 335° |
| 2026-05-06 09:30 | 29.36736 | 54.15181 | 41160 ft | 509 kts | 335° |
| 2026-05-06 09:30 | 29.43498 | 54.12959 | 41151 ft | 509 kts | 335° |
| 2026-05-06 09:31 | 29.50296 | 54.10724 | 41153 ft | 508 kts | 335° |
| 2026-05-06 09:31 | 29.57096 | 54.08484 | 41157 ft | 508 kts | 335° |
| 2026-05-06 09:32 | 29.63894 | 54.06242 | 41159 ft | 508 kts | 335° |
| 2026-05-06 09:32 | 29.70688 | 54.03999 | 41168 ft | 508 kts | 335° |
| 2026-05-06 09:33 | 29.77479 | 54.01752 | 41170 ft | 508 kts | 335° |
| 2026-05-06 09:33 | 29.84278 | 53.99501 | 41180 ft | 508 kts | 335° |
| 2026-05-06 09:34 | 29.91065 | 53.97249 | 41187 ft | 507 kts | 334° |
| 2026-05-06 09:34 | 29.97851 | 53.94995 | 41198 ft | 507 kts | 334° |
| 2026-05-06 09:35 | 30.04628 | 53.92741 | 41194 ft | 507 kts | 334° |
| 2026-05-06 09:35 | 30.11410 | 53.90482 | 41198 ft | 507 kts | 334° |
| 2026-05-06 09:36 | 30.18196 | 53.88218 | 41193 ft | 508 kts | 334° |
| 2026-05-06 09:36 | 30.24946 | 53.85964 | 41179 ft | 508 kts | 334° |
| 2026-05-06 09:37 | 30.31735 | 53.83693 | 41183 ft | 507 kts | 334° |
| 2026-05-06 09:37 | 30.38515 | 53.81421 | 41174 ft | 508 kts | 334° |
| 2026-05-06 09:38 | 30.45302 | 53.79145 | 41152 ft | 508 kts | 334° |
| 2026-05-06 09:38 | 30.52147 | 53.76844 | 41156 ft | 509 kts | 334° |
| 2026-05-06 09:39 | 30.58909 | 53.74569 | 41137 ft | 511 kts | 334° |
| 2026-05-06 09:39 | 30.65739 | 53.72268 | 41125 ft | 511 kts | 334° |
| 2026-05-06 09:40 | 30.72574 | 53.69962 | 41115 ft | 512 kts | 334° |
| 2026-05-06 09:40 | 30.82838 | 53.66491 | 41093 ft | 512 kts | 334° |
| 2026-05-06 09:41 | 30.89687 | 53.64172 | 41082 ft | 513 kts | 334° |
| 2026-05-06 09:41 | 30.96536 | 53.61848 | 41070 ft | 513 kts | 334° |
| 2026-05-06 09:42 | 31.03386 | 53.59521 | 41056 ft | 513 kts | 334° |
| 2026-05-06 09:42 | 31.10229 | 53.57193 | 41053 ft | 513 kts | 334° |
| 2026-05-06 09:43 | 31.17080 | 53.54858 | 41049 ft | 513 kts | 334° |
| 2026-05-06 09:43 | 31.23930 | 53.52521 | 41046 ft | 513 kts | 334° |
| 2026-05-06 09:44 | 31.30782 | 53.50179 | 41047 ft | 513 kts | 334° |
| 2026-05-06 09:44 | 31.37631 | 53.47835 | 41052 ft | 513 kts | 334° |
| 2026-05-06 09:45 | 31.44480 | 53.45486 | 41048 ft | 513 kts | 334° |
| 2026-05-06 09:45 | 31.51328 | 53.43136 | 41053 ft | 513 kts | 334° |
| 2026-05-06 09:46 | 31.58164 | 53.40785 | 41050 ft | 512 kts | 334° |
| 2026-05-06 09:46 | 31.65003 | 53.38430 | 41053 ft | 512 kts | 334° |
| 2026-05-06 09:47 | 31.71837 | 53.36072 | 41064 ft | 512 kts | 334° |
| 2026-05-06 09:47 | 31.78668 | 53.33713 | 41078 ft | 511 kts | 334° |
| 2026-05-06 09:48 | 31.85494 | 53.31351 | 41088 ft | 511 kts | 334° |
| 2026-05-06 09:48 | 31.92313 | 53.28988 | 41086 ft | 511 kts | 334° |
| 2026-05-06 09:49 | 31.99128 | 53.26623 | 41091 ft | 510 kts | 334° |
| 2026-05-06 09:49 | 32.05932 | 53.24258 | 41092 ft | 510 kts | 334° |
| 2026-05-06 09:50 | 32.12743 | 53.21886 | 41086 ft | 510 kts | 334° |
| 2026-05-06 09:50 | 32.19555 | 53.19512 | 41091 ft | 510 kts | 334° |
| 2026-05-06 09:51 | 32.26369 | 53.17131 | 41084 ft | 511 kts | 334° |
| 2026-05-06 09:51 | 32.33188 | 53.14747 | 41082 ft | 511 kts | 334° |
| 2026-05-06 09:52 | 32.40008 | 53.12357 | 41076 ft | 511 kts | 334° |
| 2026-05-06 09:52 | 32.46783 | 53.09980 | 41075 ft | 512 kts | 334° |
| 2026-05-06 09:53 | 32.53609 | 53.07581 | 41071 ft | 512 kts | 334° |
| 2026-05-06 09:53 | 32.60438 | 53.05178 | 41070 ft | 512 kts | 333° |
| 2026-05-06 09:54 | 32.67272 | 53.02768 | 41073 ft | 513 kts | 333° |
| 2026-05-06 09:54 | 32.74112 | 53.00353 | 41079 ft | 513 kts | 333° |
| 2026-05-06 09:55 | 32.80963 | 52.97930 | 41073 ft | 514 kts | 333° |
| 2026-05-06 09:55 | 32.87821 | 52.95500 | 41073 ft | 515 kts | 333° |
| 2026-05-06 09:56 | 32.94688 | 52.93064 | 41076 ft | 515 kts | 333° |
| 2026-05-06 09:56 | 33.01564 | 52.90620 | 41054 ft | 516 kts | 333° |
| 2026-05-06 09:57 | 33.08438 | 52.88173 | 41047 ft | 517 kts | 333° |
| 2026-05-06 09:57 | 33.15335 | 52.85714 | 41046 ft | 518 kts | 333° |
| 2026-05-06 09:58 | 33.22254 | 52.83242 | 41031 ft | 521 kts | 333° |
| 2026-05-06 09:58 | 33.29190 | 52.80763 | 41020 ft | 520 kts | 333° |
| 2026-05-06 09:59 | 33.36125 | 52.78276 | 40995 ft | 521 kts | 333° |
| 2026-05-06 09:59 | 33.43072 | 52.75783 | 40993 ft | 522 kts | 333° |
| 2026-05-06 10:00 | 33.50029 | 52.73282 | 40970 ft | 522 kts | 333° |
| 2026-05-06 10:00 | 33.56984 | 52.70777 | 40965 ft | 522 kts | 333° |
| 2026-05-06 10:01 | 33.63929 | 52.68272 | 40958 ft | 521 kts | 332° |
| 2026-05-06 10:01 | 33.70834 | 52.65777 | 40952 ft | 522 kts | 332° |
| 2026-05-06 10:02 | 33.77785 | 52.63261 | 40955 ft | 522 kts | 332° |
| 2026-05-06 10:02 | 33.84731 | 52.60743 | 40948 ft | 521 kts | 333° |
| 2026-05-06 10:03 | 33.91677 | 52.58219 | 40937 ft | 521 kts | 333° |
| 2026-05-06 10:03 | 33.98627 | 52.55692 | 40934 ft | 522 kts | 333° |
| 2026-05-06 10:04 | 34.05578 | 52.53157 | 40927 ft | 523 kts | 333° |
| 2026-05-06 10:04 | 34.12538 | 52.50618 | 40918 ft | 522 kts | 333° |
| 2026-05-06 10:05 | 34.19492 | 52.48074 | 40910 ft | 522 kts | 333° |
| 2026-05-06 10:05 | 34.26448 | 52.45527 | 40896 ft | 522 kts | 333° |
| 2026-05-06 10:06 | 34.32219 | 52.43409 | 40902 ft | 522 kts | 333° |
| 2026-05-06 10:06 | 34.39160 | 52.40859 | 40894 ft | 521 kts | 333° |
| 2026-05-06 10:07 | 34.46090 | 52.38308 | 40887 ft | 520 kts | 333° |
| 2026-05-06 10:07 | 34.53008 | 52.35756 | 40878 ft | 520 kts | 333° |
| 2026-05-06 10:08 | 34.59928 | 52.33200 | 40877 ft | 520 kts | 333° |
| 2026-05-06 10:08 | 34.66847 | 52.30641 | 40876 ft | 519 kts | 333° |
| 2026-05-06 10:09 | 34.73757 | 52.28077 | 40879 ft | 520 kts | 333° |
| 2026-05-06 10:09 | 34.80687 | 52.25505 | 40868 ft | 521 kts | 333° |
| 2026-05-06 10:10 | 34.87626 | 52.22923 | 40882 ft | 522 kts | 333° |
| 2026-05-06 10:10 | 34.94527 | 52.20352 | 40878 ft | 522 kts | 333° |
| 2026-05-06 10:11 | 35.01479 | 52.17757 | 40884 ft | 523 kts | 333° |
| 2026-05-06 10:11 | 35.08438 | 52.15154 | 40884 ft | 523 kts | 333° |
| 2026-05-06 10:12 | 35.15397 | 52.12547 | 40897 ft | 524 kts | 333° |
| 2026-05-06 10:12 | 35.22373 | 52.09929 | 40903 ft | 524 kts | 333° |
| 2026-05-06 10:13 | 35.29355 | 52.07303 | 40918 ft | 525 kts | 333° |
| 2026-05-06 10:13 | 35.36342 | 52.04672 | 40937 ft | 525 kts | 333° |
| 2026-05-06 10:14 | 35.43333 | 52.02034 | 40955 ft | 526 kts | 333° |
| 2026-05-06 10:14 | 35.50327 | 51.99390 | 40973 ft | 526 kts | 333° |
| 2026-05-06 10:15 | 35.57316 | 51.96743 | 40972 ft | 525 kts | 333° |
| 2026-05-06 10:15 | 35.64301 | 51.94093 | 41002 ft | 525 kts | 333° |
| 2026-05-06 10:16 | 35.71272 | 51.91443 | 41025 ft | 525 kts | 333° |
| 2026-05-06 10:16 | 35.78244 | 51.88788 | 41034 ft | 524 kts | 333° |
| 2026-05-06 10:17 | 35.85205 | 51.86134 | 41033 ft | 523 kts | 333° |
| 2026-05-06 10:17 | 35.92141 | 51.83480 | 41039 ft | 522 kts | 333° |
| 2026-05-06 10:18 | 35.99026 | 51.80845 | 41047 ft | 521 kts | 334° |
| 2026-05-06 10:18 | 36.05957 | 51.78185 | 41047 ft | 520 kts | 334° |
| 2026-05-06 10:19 | 36.12877 | 51.75524 | 41043 ft | 523 kts | 333° |
| 2026-05-06 10:19 | 36.19810 | 51.72858 | 41042 ft | 522 kts | 333° |
| 2026-05-06 10:20 | 36.26783 | 51.70162 | 41013 ft | 528 kts | 334° |
| 2026-05-06 10:20 | 36.33813 | 51.67452 | 41020 ft | 529 kts | 334° |
| 2026-05-06 10:21 | 36.40848 | 51.64723 | 40993 ft | 530 kts | 334° |
| 2026-05-06 10:21 | 36.47893 | 51.61994 | 40971 ft | 530 kts | 334° |
| 2026-05-06 10:22 | 36.54934 | 51.59255 | 40960 ft | 530 kts | 333° |
| 2026-05-06 10:22 | 36.61985 | 51.56509 | 40942 ft | 531 kts | 334° |
| 2026-05-06 10:23 | 36.69043 | 51.53755 | 40947 ft | 532 kts | 334° |
| 2026-05-06 10:23 | 36.76116 | 51.50990 | 40951 ft | 533 kts | 334° |
| 2026-05-06 10:24 | 36.83197 | 51.48216 | 40960 ft | 534 kts | 334° |
| 2026-05-06 10:24 | 36.90283 | 51.45436 | 40972 ft | 534 kts | 334° |
| 2026-05-06 10:25 | 36.97373 | 51.42648 | 40976 ft | 534 kts | 334° |
| 2026-05-06 10:25 | 37.04461 | 51.39855 | 40981 ft | 535 kts | 334° |
| 2026-05-06 10:26 | 37.11565 | 51.37050 | 40984 ft | 536 kts | 334° |
| 2026-05-06 10:26 | 37.18678 | 51.34237 | 40981 ft | 536 kts | 334° |
| 2026-05-06 10:27 | 37.25720 | 51.31448 | 40977 ft | 533 kts | 334° |
| 2026-05-06 10:27 | 37.32794 | 51.28635 | 40984 ft | 533 kts | 334° |
| 2026-05-06 10:28 | 37.39876 | 51.25820 | 40984 ft | 534 kts | 334° |
| 2026-05-06 10:28 | 37.46958 | 51.22995 | 40982 ft | 534 kts | 334° |
| 2026-05-06 10:29 | 37.54036 | 51.20168 | 40982 ft | 534 kts | 334° |
| 2026-05-06 10:29 | 37.61122 | 51.17331 | 40988 ft | 534 kts | 334° |
| 2026-05-06 10:30 | 37.68209 | 51.14489 | 40984 ft | 534 kts | 334° |
| 2026-05-06 10:30 | 37.75295 | 51.11642 | 40978 ft | 534 kts | 334° |
| 2026-05-06 10:31 | 37.82382 | 51.08788 | 40967 ft | 535 kts | 334° |
| 2026-05-06 10:31 | 37.89475 | 51.05925 | 40971 ft | 538 kts | 334° |
| 2026-05-06 10:32 | 37.96626 | 51.03033 | 40982 ft | 540 kts | 334° |
| 2026-05-06 10:32 | 38.03681 | 50.99881 | 40975 ft | 535 kts | 330° |
| 2026-05-06 10:33 | 38.10621 | 50.96465 | 40974 ft | 536 kts | 330° |
| 2026-05-06 10:33 | 38.17583 | 50.93063 | 40978 ft | 536 kts | 330° |
| 2026-05-06 10:34 | 38.24537 | 50.89638 | 40982 ft | 536 kts | 330° |
| 2026-05-06 10:34 | 38.31496 | 50.86215 | 40979 ft | 536 kts | 330° |
| 2026-05-06 10:35 | 38.38453 | 50.82779 | 40986 ft | 536 kts | 330° |
| 2026-05-06 10:35 | 38.45368 | 50.79362 | 40980 ft | 536 kts | 330° |
| 2026-05-06 10:36 | 38.52375 | 50.75889 | 40987 ft | 537 kts | 330° |
| 2026-05-06 10:36 | 38.59283 | 50.72459 | 40982 ft | 537 kts | 331° |
| 2026-05-06 10:37 | 38.66247 | 50.68994 | 40987 ft | 537 kts | 331° |
| 2026-05-06 10:37 | 38.73214 | 50.65520 | 40989 ft | 537 kts | 331° |
| 2026-05-06 10:38 | 38.80182 | 50.62038 | 40987 ft | 538 kts | 331° |
| 2026-05-06 10:38 | 38.87154 | 50.58547 | 40989 ft | 538 kts | 331° |
| 2026-05-06 10:39 | 38.94129 | 50.55047 | 40990 ft | 538 kts | 331° |
| 2026-05-06 10:39 | 39.01108 | 50.51538 | 40997 ft | 539 kts | 331° |
| 2026-05-06 10:40 | 39.08083 | 50.48023 | 40994 ft | 539 kts | 331° |
| 2026-05-06 10:40 | 39.15069 | 50.44495 | 40995 ft | 539 kts | 331° |
| 2026-05-06 10:41 | 39.22059 | 50.40958 | 40996 ft | 540 kts | 331° |
| 2026-05-06 10:41 | 39.29050 | 50.37413 | 41003 ft | 540 kts | 331° |
| 2026-05-06 10:42 | 39.35996 | 50.33882 | 41004 ft | 540 kts | 331° |
| 2026-05-06 10:42 | 39.42990 | 50.30320 | 40997 ft | 540 kts | 331° |
| 2026-05-06 10:43 | 39.49984 | 50.26750 | 41003 ft | 540 kts | 331° |
| 2026-05-06 10:44 | 39.60466 | 50.21385 | 41007 ft | 540 kts | 331° |
| 2026-05-06 10:44 | 39.67459 | 50.17796 | 41005 ft | 540 kts | 331° |
| 2026-05-06 10:45 | 39.74458 | 50.14196 | 41005 ft | 541 kts | 331° |
| 2026-05-06 10:45 | 39.81448 | 50.10593 | 41007 ft | 541 kts | 331° |
| 2026-05-06 10:46 | 39.88453 | 50.06974 | 41007 ft | 542 kts | 331° |
| 2026-05-06 10:46 | 39.95460 | 50.03347 | 41007 ft | 542 kts | 331° |
| 2026-05-06 10:47 | 40.02469 | 49.99709 | 41006 ft | 542 kts | 332° |
| 2026-05-06 10:47 | 40.09474 | 49.96066 | 41001 ft | 543 kts | 332° |
| 2026-05-06 10:48 | 40.16490 | 49.92409 | 40998 ft | 543 kts | 332° |
| 2026-05-06 10:48 | 40.23509 | 49.88744 | 40997 ft | 543 kts | 332° |
| 2026-05-06 10:49 | 40.30482 | 49.85093 | 41001 ft | 543 kts | 332° |
| 2026-05-06 10:49 | 40.37505 | 49.81408 | 40997 ft | 544 kts | 332° |
| 2026-05-06 10:50 | 40.44530 | 49.77713 | 40998 ft | 544 kts | 332° |
| 2026-05-06 10:50 | 40.51556 | 49.74010 | 41000 ft | 544 kts | 332° |
| 2026-05-06 10:51 | 40.58574 | 49.70302 | 40997 ft | 544 kts | 332° |
| 2026-05-06 10:51 | 40.65603 | 49.66581 | 41000 ft | 544 kts | 332° |
| 2026-05-06 10:52 | 40.72635 | 49.62849 | 41005 ft | 545 kts | 332° |
| 2026-05-06 10:52 | 40.79670 | 49.59108 | 41011 ft | 545 kts | 332° |
| 2026-05-06 10:53 | 40.86708 | 49.55355 | 41011 ft | 546 kts | 332° |
| 2026-05-06 10:53 | 40.93750 | 49.51593 | 41016 ft | 546 kts | 332° |
| 2026-05-06 10:54 | 41.00795 | 49.47819 | 41006 ft | 546 kts | 332° |
| 2026-05-06 10:54 | 41.07842 | 49.44037 | 41016 ft | 546 kts | 332° |
| 2026-05-06 10:55 | 41.14881 | 49.40249 | 41019 ft | 547 kts | 332° |
| 2026-05-06 10:55 | 41.21933 | 49.36446 | 41021 ft | 547 kts | 333° |
| 2026-05-06 10:56 | 41.27785 | 49.33283 | 41024 ft | 547 kts | 333° |
| 2026-05-06 10:56 | 41.34833 | 49.29465 | 41026 ft | 547 kts | 333° |
| 2026-05-06 10:57 | 41.41884 | 49.25638 | 41024 ft | 547 kts | 333° |
| 2026-05-06 10:57 | 41.48937 | 49.21800 | 41025 ft | 548 kts | 333° |
| 2026-05-06 10:58 | 41.55994 | 49.17950 | 41031 ft | 548 kts | 333° |
| 2026-05-06 10:58 | 41.63055 | 49.14090 | 41029 ft | 548 kts | 333° |
| 2026-05-06 10:59 | 41.70109 | 49.10224 | 41036 ft | 548 kts | 333° |
| 2026-05-06 10:59 | 41.77172 | 49.06344 | 41036 ft | 549 kts | 333° |
| 2026-05-06 11:00 | 41.84235 | 49.02454 | 41038 ft | 549 kts | 333° |
| 2026-05-06 11:00 | 41.91296 | 48.98557 | 41032 ft | 549 kts | 333° |
| 2026-05-06 11:01 | 41.98356 | 48.94650 | 41037 ft | 549 kts | 333° |
| 2026-05-06 11:01 | 42.05351 | 48.90575 | 41033 ft | 547 kts | 330° |
| 2026-05-06 11:02 | 42.12203 | 48.86273 | 41031 ft | 547 kts | 330° |
| 2026-05-06 11:02 | 42.19085 | 48.81924 | 41013 ft | 547 kts | 330° |
| 2026-05-06 11:03 | 42.25974 | 48.77563 | 41022 ft | 547 kts | 330° |
| 2026-05-06 11:03 | 42.32863 | 48.73195 | 41028 ft | 547 kts | 330° |
| 2026-05-06 11:04 | 42.39750 | 48.68813 | 41025 ft | 547 kts | 330° |
| 2026-05-06 11:04 | 42.46639 | 48.64423 | 41030 ft | 547 kts | 330° |
| 2026-05-06 11:05 | 42.53526 | 48.60019 | 41025 ft | 547 kts | 330° |
| 2026-05-06 11:05 | 42.60415 | 48.55608 | 41020 ft | 547 kts | 330° |
| 2026-05-06 11:06 | 42.67295 | 48.51188 | 41020 ft | 547 kts | 331° |
| 2026-05-06 11:06 | 42.74189 | 48.46750 | 41016 ft | 547 kts | 331° |
| 2026-05-06 11:07 | 42.81067 | 48.42311 | 41016 ft | 547 kts | 331° |
| 2026-05-06 11:07 | 42.87947 | 48.37860 | 41008 ft | 547 kts | 331° |
| 2026-05-06 11:08 | 42.94814 | 48.33406 | 41014 ft | 547 kts | 331° |
| 2026-05-06 11:08 | 43.01684 | 48.28938 | 41010 ft | 547 kts | 331° |
| 2026-05-06 11:09 | 43.08551 | 48.24462 | 41005 ft | 547 kts | 331° |
| 2026-05-06 11:09 | 43.15417 | 48.19976 | 41008 ft | 547 kts | 331° |
| 2026-05-06 11:10 | 43.22282 | 48.15478 | 41004 ft | 547 kts | 331° |
| 2026-05-06 11:10 | 43.29146 | 48.10970 | 40998 ft | 547 kts | 331° |
| 2026-05-06 11:11 | 43.36009 | 48.06452 | 40993 ft | 547 kts | 331° |
| 2026-05-06 11:11 | 43.42870 | 48.01922 | 40996 ft | 547 kts | 331° |
| 2026-05-06 11:12 | 43.49724 | 47.97387 | 41001 ft | 547 kts | 331° |
| 2026-05-06 11:12 | 43.56539 | 47.92866 | 40990 ft | 547 kts | 331° |
| 2026-05-06 11:13 | 43.63399 | 47.88303 | 40988 ft | 547 kts | 331° |
| 2026-05-06 11:13 | 43.70258 | 47.83730 | 40983 ft | 547 kts | 331° |
| 2026-05-06 11:14 | 43.77111 | 47.79148 | 40985 ft | 547 kts | 331° |
| 2026-05-06 11:14 | 43.83959 | 47.74559 | 40982 ft | 547 kts | 331° |
| 2026-05-06 11:15 | 43.90802 | 47.69961 | 40980 ft | 546 kts | 331° |
| 2026-05-06 11:15 | 43.97630 | 47.65361 | 40981 ft | 546 kts | 331° |
| 2026-05-06 11:16 | 44.04457 | 47.60750 | 40977 ft | 545 kts | 331° |
| 2026-05-06 11:16 | 44.11275 | 47.56133 | 40974 ft | 545 kts | 331° |
| 2026-05-06 11:17 | 44.18088 | 47.51508 | 40973 ft | 545 kts | 331° |
| 2026-05-06 11:17 | 44.24897 | 47.46873 | 40961 ft | 544 kts | 332° |
| 2026-05-06 11:18 | 44.31702 | 47.42229 | 40969 ft | 544 kts | 332° |
| 2026-05-06 11:18 | 44.38507 | 47.37573 | 40969 ft | 545 kts | 332° |
| 2026-05-06 11:19 | 44.45306 | 47.32910 | 40964 ft | 545 kts | 332° |
| 2026-05-06 11:19 | 44.52114 | 47.28228 | 40965 ft | 545 kts | 332° |
| 2026-05-06 11:20 | 44.58878 | 47.23564 | 40962 ft | 545 kts | 332° |
| 2026-05-06 11:20 | 44.65688 | 47.18855 | 40957 ft | 546 kts | 332° |
| 2026-05-06 11:21 | 44.72496 | 47.14136 | 40958 ft | 546 kts | 332° |
| 2026-05-06 11:21 | 44.79308 | 47.09401 | 40953 ft | 546 kts | 332° |
| 2026-05-06 11:22 | 44.86120 | 47.04654 | 40947 ft | 546 kts | 332° |
| 2026-05-06 11:22 | 44.92932 | 46.99895 | 40950 ft | 546 kts | 332° |
| 2026-05-06 11:23 | 44.99742 | 46.95124 | 40947 ft | 546 kts | 332° |
| 2026-05-06 11:23 | 45.06548 | 46.90343 | 40950 ft | 546 kts | 332° |
| 2026-05-06 11:24 | 45.13350 | 46.85552 | 40945 ft | 546 kts | 332° |
| 2026-05-06 11:24 | 45.20140 | 46.80757 | 40946 ft | 546 kts | 332° |
| 2026-05-06 11:25 | 45.26932 | 46.75947 | 40943 ft | 545 kts | 332° |
| 2026-05-06 11:25 | 45.33718 | 46.71129 | 40942 ft | 545 kts | 332° |
| 2026-05-06 11:26 | 45.40498 | 46.66302 | 40939 ft | 545 kts | 332° |
| 2026-05-06 11:26 | 45.47272 | 46.61466 | 40938 ft | 544 kts | 332° |
| 2026-05-06 11:27 | 45.54041 | 46.56621 | 40937 ft | 544 kts | 332° |
| 2026-05-06 11:27 | 45.60805 | 46.51767 | 40934 ft | 544 kts | 332° |
| 2026-05-06 11:28 | 45.67562 | 46.46903 | 40927 ft | 544 kts | 332° |
| 2026-05-06 11:28 | 45.74307 | 46.42036 | 40927 ft | 543 kts | 332° |
| 2026-05-06 11:29 | 45.81054 | 46.37154 | 40924 ft | 543 kts | 332° |
| 2026-05-06 11:29 | 45.87796 | 46.32261 | 40923 ft | 543 kts | 332° |
| 2026-05-06 11:30 | 45.94536 | 46.27357 | 40923 ft | 543 kts | 332° |
| 2026-05-06 11:30 | 46.01275 | 46.22441 | 40919 ft | 543 kts | 332° |
| 2026-05-06 11:31 | 46.07968 | 46.17544 | 40917 ft | 543 kts | 332° |
| 2026-05-06 11:31 | 46.14702 | 46.12604 | 40922 ft | 543 kts | 332° |
| 2026-05-06 11:32 | 46.21474 | 46.07622 | 40917 ft | 542 kts | 332° |
| 2026-05-06 11:32 | 46.28145 | 46.02702 | 40917 ft | 542 kts | 332° |
| 2026-05-06 11:33 | 46.34860 | 45.97734 | 40912 ft | 542 kts | 332° |
| 2026-05-06 11:33 | 46.41571 | 45.92756 | 40913 ft | 542 kts | 332° |
| 2026-05-06 11:34 | 46.48273 | 45.87771 | 40919 ft | 541 kts | 332° |
| 2026-05-06 11:34 | 46.54973 | 45.82774 | 40915 ft | 541 kts | 332° |
| 2026-05-06 11:35 | 46.61666 | 45.77767 | 40909 ft | 541 kts | 332° |
| 2026-05-06 11:35 | 46.68355 | 45.72750 | 40908 ft | 541 kts | 332° |
| 2026-05-06 11:36 | 46.75038 | 45.67723 | 40910 ft | 540 kts | 332° |
| 2026-05-06 11:36 | 46.81714 | 45.62687 | 40905 ft | 540 kts | 332° |
| 2026-05-06 11:37 | 46.88386 | 45.57640 | 40909 ft | 540 kts | 332° |
| 2026-05-06 11:37 | 46.95046 | 45.52588 | 40911 ft | 540 kts | 332° |
| 2026-05-06 11:38 | 47.01708 | 45.47519 | 40911 ft | 539 kts | 332° |
| 2026-05-06 11:38 | 47.08322 | 45.42474 | 40902 ft | 539 kts | 332° |
| 2026-05-06 11:39 | 47.14977 | 45.37382 | 40901 ft | 539 kts | 332° |
| 2026-05-06 11:39 | 47.21631 | 45.32278 | 40913 ft | 539 kts | 332° |
| 2026-05-06 11:40 | 47.28280 | 45.27161 | 40912 ft | 539 kts | 332° |
| 2026-05-06 11:40 | 47.34928 | 45.22032 | 40912 ft | 539 kts | 332° |
| 2026-05-06 11:41 | 47.41564 | 45.16896 | 40914 ft | 539 kts | 332° |
| 2026-05-06 11:41 | 47.48204 | 45.11744 | 40915 ft | 539 kts | 332° |
| 2026-05-06 11:42 | 47.54839 | 45.06580 | 40923 ft | 539 kts | 332° |
| 2026-05-06 11:42 | 47.61468 | 45.01406 | 40924 ft | 538 kts | 332° |
| 2026-05-06 11:43 | 47.68092 | 44.96221 | 40922 ft | 538 kts | 332° |
| 2026-05-06 11:43 | 47.74712 | 44.91024 | 40929 ft | 538 kts | 332° |
| 2026-05-06 11:44 | 47.84634 | 44.83207 | 40929 ft | 538 kts | 332° |
| 2026-05-06 11:44 | 47.91237 | 44.77985 | 40936 ft | 538 kts | 332° |
| 2026-05-06 11:45 | 47.96729 | 44.73631 | 40943 ft | 537 kts | 332° |
| 2026-05-06 11:45 | 48.04398 | 44.67532 | 40946 ft | 537 kts | 332° |
| 2026-05-06 11:46 | 48.09928 | 44.63123 | 40945 ft | 537 kts | 331° |
| 2026-05-06 11:46 | 48.16522 | 44.57849 | 40947 ft | 537 kts | 331° |
| 2026-05-06 11:47 | 48.23113 | 44.52563 | 40955 ft | 537 kts | 331° |
| 2026-05-06 11:47 | 48.29690 | 44.47273 | 40952 ft | 537 kts | 331° |
| 2026-05-06 11:48 | 48.36266 | 44.41967 | 40949 ft | 536 kts | 331° |
| 2026-05-06 11:48 | 48.42792 | 44.36686 | 40948 ft | 536 kts | 331° |
| 2026-05-06 11:49 | 48.49355 | 44.31361 | 40944 ft | 536 kts | 331° |
| 2026-05-06 11:49 | 48.55911 | 44.26025 | 40951 ft | 535 kts | 331° |
| 2026-05-06 11:50 | 48.62460 | 44.20678 | 40952 ft | 535 kts | 331° |
| 2026-05-06 11:50 | 48.68999 | 44.15325 | 40956 ft | 535 kts | 331° |
| 2026-05-06 11:51 | 48.75544 | 44.09949 | 40955 ft | 535 kts | 331° |
| 2026-05-06 11:51 | 48.82090 | 44.04558 | 40953 ft | 535 kts | 331° |
| 2026-05-06 11:52 | 48.88635 | 43.99151 | 40953 ft | 535 kts | 331° |
| 2026-05-06 11:52 | 48.95176 | 43.93731 | 40952 ft | 535 kts | 331° |
| 2026-05-06 11:53 | 49.01717 | 43.88294 | 40950 ft | 536 kts | 331° |
| 2026-05-06 11:53 | 49.08259 | 43.82840 | 40938 ft | 536 kts | 331° |
| 2026-05-06 11:54 | 49.14800 | 43.77371 | 40951 ft | 536 kts | 331° |
| 2026-05-06 11:54 | 49.21328 | 43.71896 | 40954 ft | 536 kts | 331° |
| 2026-05-06 11:55 | 49.27859 | 43.66401 | 40952 ft | 536 kts | 331° |
| 2026-05-06 11:55 | 49.34388 | 43.60892 | 40947 ft | 536 kts | 331° |
| 2026-05-06 11:56 | 49.40912 | 43.55370 | 40940 ft | 535 kts | 331° |
| 2026-05-06 11:56 | 49.47429 | 43.49837 | 40936 ft | 535 kts | 331° |
| 2026-05-06 11:57 | 49.53942 | 43.44291 | 40942 ft | 535 kts | 331° |
| 2026-05-06 11:57 | 49.60450 | 43.38731 | 40946 ft | 535 kts | 331° |
| 2026-05-06 11:58 | 49.66951 | 43.33160 | 40925 ft | 534 kts | 331° |
| 2026-05-06 11:58 | 49.73439 | 43.27584 | 40939 ft | 534 kts | 331° |
| 2026-05-06 11:59 | 49.79886 | 43.22026 | 40937 ft | 534 kts | 331° |
| 2026-05-06 11:59 | 49.86373 | 43.16415 | 40939 ft | 534 kts | 331° |
| 2026-05-06 12:00 | 49.92853 | 43.10795 | 40939 ft | 533 kts | 330° |
| 2026-05-06 12:00 | 49.99316 | 43.05169 | 40928 ft | 532 kts | 330° |
| 2026-05-06 12:01 | 50.05774 | 42.99532 | 40925 ft | 532 kts | 330° |
| 2026-05-06 12:01 | 50.12224 | 42.93884 | 40926 ft | 532 kts | 330° |
| 2026-05-06 12:02 | 50.18669 | 42.88223 | 40928 ft | 531 kts | 330° |
| 2026-05-06 12:02 | 50.25105 | 42.82552 | 40917 ft | 531 kts | 330° |
| 2026-05-06 12:03 | 50.31532 | 42.76871 | 40921 ft | 530 kts | 330° |
| 2026-05-06 12:03 | 50.37944 | 42.71186 | 40919 ft | 530 kts | 330° |
| 2026-05-06 12:04 | 50.44356 | 42.65483 | 40913 ft | 529 kts | 330° |
| 2026-05-06 12:04 | 50.50759 | 42.59770 | 40919 ft | 529 kts | 330° |
| 2026-05-06 12:05 | 50.57066 | 42.53827 | 40918 ft | 528 kts | 328° |
| 2026-05-06 12:05 | 50.63349 | 42.47818 | 40922 ft | 528 kts | 328° |
| 2026-05-06 12:06 | 50.69586 | 42.41702 | 40919 ft | 528 kts | 328° |
| 2026-05-06 12:06 | 50.75848 | 42.35615 | 40547 ft | 530 kts | 328° |
| 2026-05-06 12:07 | 50.78980 | 42.32552 | 40218 ft | 529 kts | 328° |
| 2026-05-06 12:07 | 50.82101 | 42.29480 | 39928 ft | 527 kts | 328° |
| 2026-05-06 12:07 | 50.88299 | 42.23397 | 39926 ft | 524 kts | 328° |
| 2026-05-06 12:08 | 50.94450 | 42.17335 | 39917 ft | 523 kts | 328° |
| 2026-05-06 12:08 | 51.00628 | 42.11227 | 39920 ft | 523 kts | 328° |
| 2026-05-06 12:09 | 51.06840 | 42.05068 | 39921 ft | 522 kts | 328° |
| 2026-05-06 12:09 | 51.12955 | 41.98984 | 39919 ft | 522 kts | 328° |
| 2026-05-06 12:10 | 51.19115 | 41.92837 | 39921 ft | 522 kts | 327° |
| 2026-05-06 12:10 | 51.25273 | 41.86672 | 39915 ft | 522 kts | 327° |
| 2026-05-06 12:11 | 51.31425 | 41.80492 | 39925 ft | 522 kts | 327° |
| 2026-05-06 12:11 | 51.37573 | 41.74298 | 39923 ft | 522 kts | 327° |
| 2026-05-06 12:12 | 51.43720 | 41.68084 | 39919 ft | 522 kts | 327° |
| 2026-05-06 12:12 | 51.49865 | 41.61852 | 39921 ft | 523 kts | 327° |
| 2026-05-06 12:13 | 51.56002 | 41.55608 | 39922 ft | 523 kts | 327° |
| 2026-05-06 12:13 | 51.62141 | 41.49342 | 39920 ft | 523 kts | 327° |
| 2026-05-06 12:14 | 51.68276 | 41.43060 | 39924 ft | 522 kts | 327° |
| 2026-05-06 12:14 | 51.74407 | 41.36760 | 39915 ft | 522 kts | 327° |
| 2026-05-06 12:15 | 51.80533 | 41.30446 | 39918 ft | 522 kts | 327° |
| 2026-05-06 12:15 | 51.86654 | 41.24116 | 39919 ft | 522 kts | 327° |
| 2026-05-06 12:16 | 51.92771 | 41.17771 | 39917 ft | 522 kts | 327° |
| 2026-05-06 12:16 | 51.98875 | 41.11415 | 39922 ft | 522 kts | 327° |
| 2026-05-06 12:17 | 52.04984 | 41.05036 | 39918 ft | 522 kts | 327° |
| 2026-05-06 12:17 | 52.11092 | 40.98636 | 39913 ft | 522 kts | 327° |
| 2026-05-06 12:18 | 52.17198 | 40.92217 | 39909 ft | 522 kts | 326° |
| 2026-05-06 12:18 | 52.23295 | 40.85787 | 39905 ft | 522 kts | 326° |
| 2026-05-06 12:19 | 52.29343 | 40.79385 | 39906 ft | 521 kts | 326° |
| 2026-05-06 12:19 | 52.35427 | 40.72927 | 39911 ft | 521 kts | 326° |
| 2026-05-06 12:20 | 52.41542 | 40.66411 | 39905 ft | 521 kts | 326° |
| 2026-05-06 12:20 | 52.47609 | 40.59927 | 39908 ft | 520 kts | 326° |
| 2026-05-06 12:21 | 52.53621 | 40.53479 | 39899 ft | 520 kts | 326° |
| 2026-05-06 12:21 | 52.59713 | 40.46923 | 39903 ft | 520 kts | 326° |
| 2026-05-06 12:22 | 52.65718 | 40.40440 | 39902 ft | 520 kts | 326° |
| 2026-05-06 12:22 | 52.71754 | 40.33901 | 39904 ft | 519 kts | 325° |
| 2026-05-06 12:23 | 52.77783 | 40.27348 | 39902 ft | 519 kts | 325° |
| 2026-05-06 12:23 | 52.83805 | 40.20778 | 39900 ft | 519 kts | 325° |
| 2026-05-06 12:24 | 52.89816 | 40.14203 | 39896 ft | 518 kts | 325° |
| 2026-05-06 12:24 | 52.95826 | 40.07602 | 39890 ft | 518 kts | 325° |
| 2026-05-06 12:25 | 53.01830 | 40.00988 | 39885 ft | 518 kts | 325° |
| 2026-05-06 12:25 | 53.07826 | 39.94361 | 39893 ft | 517 kts | 325° |
| 2026-05-06 12:26 | 53.13816 | 39.87715 | 39895 ft | 517 kts | 325° |
| 2026-05-06 12:26 | 53.19799 | 39.81056 | 39891 ft | 517 kts | 325° |
| 2026-05-06 12:27 | 53.25776 | 39.74379 | 39890 ft | 517 kts | 324° |
| 2026-05-06 12:27 | 53.31750 | 39.67686 | 39885 ft | 517 kts | 324° |
| 2026-05-06 12:28 | 53.37712 | 39.60982 | 39890 ft | 517 kts | 324° |
| 2026-05-06 12:28 | 53.43674 | 39.54253 | 39882 ft | 516 kts | 324° |
| 2026-05-06 12:29 | 53.49629 | 39.47512 | 39876 ft | 516 kts | 324° |
| 2026-05-06 12:29 | 53.55578 | 39.40753 | 39871 ft | 516 kts | 324° |
| 2026-05-06 12:30 | 53.61519 | 39.33978 | 39880 ft | 516 kts | 324° |
| 2026-05-06 12:30 | 53.67455 | 39.27188 | 39872 ft | 515 kts | 324° |
| 2026-05-06 12:31 | 53.73382 | 39.20384 | 39863 ft | 515 kts | 324° |
| 2026-05-06 12:31 | 53.78295 | 39.14725 | 39865 ft | 514 kts | 324° |
| 2026-05-06 12:32 | 53.85163 | 39.06788 | 39868 ft | 514 kts | 324° |
| 2026-05-06 12:32 | 53.90110 | 39.01051 | 39872 ft | 514 kts | 324° |
| 2026-05-06 12:33 | 53.96003 | 38.94195 | 39868 ft | 513 kts | 324° |
| 2026-05-06 12:33 | 54.02842 | 38.86209 | 39866 ft | 513 kts | 324° |
| 2026-05-06 12:34 | 54.07766 | 38.80438 | 39860 ft | 512 kts | 323° |
| 2026-05-06 12:34 | 54.13633 | 38.73540 | 39863 ft | 512 kts | 323° |
| 2026-05-06 12:35 | 54.19450 | 38.66678 | 39870 ft | 511 kts | 323° |
| 2026-05-06 12:35 | 54.25290 | 38.59762 | 39866 ft | 511 kts | 323° |
| 2026-05-06 12:36 | 54.31128 | 38.52827 | 39872 ft | 510 kts | 323° |
| 2026-05-06 12:36 | 54.36954 | 38.45881 | 39867 ft | 510 kts | 323° |
| 2026-05-06 12:37 | 54.42767 | 38.38925 | 39869 ft | 509 kts | 323° |
| 2026-05-06 12:37 | 54.48572 | 38.31956 | 39877 ft | 509 kts | 323° |
| 2026-05-06 12:38 | 54.54369 | 38.24971 | 39872 ft | 508 kts | 323° |
| 2026-05-06 12:38 | 54.60159 | 38.17970 | 39877 ft | 508 kts | 323° |
| 2026-05-06 12:39 | 54.65934 | 38.10961 | 39876 ft | 508 kts | 323° |
| 2026-05-06 12:39 | 54.71715 | 38.03921 | 39878 ft | 507 kts | 322° |
| 2026-05-06 12:40 | 54.77475 | 37.96881 | 39879 ft | 507 kts | 322° |
| 2026-05-06 12:40 | 54.83233 | 37.89819 | 39882 ft | 507 kts | 322° |
| 2026-05-06 12:41 | 54.88982 | 37.82744 | 39882 ft | 506 kts | 322° |
| 2026-05-06 12:41 | 54.94722 | 37.75653 | 39877 ft | 506 kts | 322° |
| 2026-05-06 12:42 | 55.00450 | 37.68551 | 39882 ft | 506 kts | 322° |
| 2026-05-06 12:42 | 55.06137 | 37.61476 | 39882 ft | 505 kts | 322° |
| 2026-05-06 12:43 | 55.11856 | 37.54335 | 39879 ft | 505 kts | 322° |
| 2026-05-06 12:43 | 55.17571 | 37.47174 | 39879 ft | 505 kts | 322° |
| 2026-05-06 12:44 | 55.23283 | 37.39990 | 39869 ft | 505 kts | 322° |
| 2026-05-06 12:44 | 55.28984 | 37.32796 | 39874 ft | 505 kts | 322° |
| 2026-05-06 12:45 | 55.34676 | 37.25584 | 39875 ft | 505 kts | 321° |
| 2026-05-06 12:46 | 55.43207 | 37.14729 | 39869 ft | 504 kts | 321° |
| 2026-05-06 12:46 | 55.48886 | 37.07470 | 39869 ft | 504 kts | 321° |
| 2026-05-06 12:47 | 55.54557 | 37.00195 | 39871 ft | 504 kts | 321° |
| 2026-05-06 12:47 | 55.60217 | 36.92906 | 39872 ft | 503 kts | 321° |
| 2026-05-06 12:48 | 55.65872 | 36.85598 | 39870 ft | 503 kts | 321° |
| 2026-05-06 12:48 | 55.71483 | 36.78320 | 39870 ft | 503 kts | 321° |
| 2026-05-06 12:49 | 55.77126 | 36.70974 | 39880 ft | 503 kts | 321° |
| 2026-05-06 12:49 | 55.82761 | 36.63611 | 39874 ft | 502 kts | 321° |
| 2026-05-06 12:50 | 55.88385 | 36.56237 | 39879 ft | 502 kts | 321° |
| 2026-05-06 12:50 | 55.94008 | 36.48835 | 39875 ft | 502 kts | 320° |
| 2026-05-06 12:51 | 55.99625 | 36.41415 | 39880 ft | 502 kts | 320° |
| 2026-05-06 12:51 | 56.05237 | 36.33972 | 39880 ft | 502 kts | 320° |
| 2026-05-06 12:52 | 56.10842 | 36.26514 | 39885 ft | 502 kts | 320° |
| 2026-05-06 12:52 | 56.16438 | 36.19037 | 39887 ft | 501 kts | 320° |
| 2026-05-06 12:53 | 56.22025 | 36.11546 | 39886 ft | 501 kts | 320° |
| 2026-05-06 12:53 | 56.27604 | 36.04037 | 39889 ft | 501 kts | 320° |
| 2026-05-06 12:54 | 56.33171 | 35.96517 | 39889 ft | 500 kts | 320° |
| 2026-05-06 12:54 | 56.38737 | 35.88970 | 39876 ft | 500 kts | 320° |
| 2026-05-06 12:55 | 56.44297 | 35.81403 | 39882 ft | 500 kts | 320° |
| 2026-05-06 12:55 | 56.49850 | 35.73815 | 39891 ft | 500 kts | 320° |
| 2026-05-06 12:56 | 56.55399 | 35.66206 | 39898 ft | 500 kts | 319° |
| 2026-05-06 12:56 | 56.60943 | 35.58575 | 39896 ft | 500 kts | 319° |
| 2026-05-06 12:57 | 56.66479 | 35.50925 | 39903 ft | 500 kts | 319° |
| 2026-05-06 12:57 | 56.71974 | 35.43305 | 39896 ft | 500 kts | 319° |
| 2026-05-06 12:58 | 56.77530 | 35.35569 | 39900 ft | 500 kts | 319° |
| 2026-05-06 12:58 | 56.83014 | 35.27906 | 39902 ft | 500 kts | 319° |
| 2026-05-06 12:59 | 56.88526 | 35.20173 | 39905 ft | 499 kts | 319° |
| 2026-05-06 12:59 | 56.94030 | 35.12422 | 39910 ft | 499 kts | 319° |
| 2026-05-06 13:00 | 56.99527 | 35.04652 | 39915 ft | 499 kts | 319° |
| 2026-05-06 13:00 | 57.05016 | 34.96863 | 39914 ft | 498 kts | 319° |
| 2026-05-06 13:01 | 57.10496 | 34.89057 | 39916 ft | 498 kts | 318° |
| 2026-05-06 13:01 | 57.15959 | 34.81245 | 39918 ft | 497 kts | 318° |
| 2026-05-06 13:02 | 57.21419 | 34.73407 | 39926 ft | 497 kts | 318° |
| 2026-05-06 13:02 | 57.26874 | 34.65548 | 39930 ft | 497 kts | 318° |
| 2026-05-06 13:03 | 57.32321 | 34.57668 | 39915 ft | 497 kts | 318° |
| 2026-05-06 13:03 | 57.37759 | 34.49770 | 39928 ft | 497 kts | 318° |
| 2026-05-06 13:04 | 57.43189 | 34.41855 | 39933 ft | 496 kts | 318° |
| 2026-05-06 13:04 | 57.48611 | 34.33920 | 39936 ft | 496 kts | 317° |
| 2026-05-06 13:05 | 57.54019 | 34.25975 | 39941 ft | 496 kts | 317° |
| 2026-05-06 13:05 | 57.59424 | 34.18002 | 39946 ft | 495 kts | 317° |
| 2026-05-06 13:06 | 57.64822 | 34.10009 | 39945 ft | 495 kts | 317° |
| 2026-05-06 13:06 | 57.70176 | 34.02052 | 39947 ft | 495 kts | 317° |
| 2026-05-06 13:07 | 57.75556 | 33.94022 | 39953 ft | 494 kts | 317° |
| 2026-05-06 13:07 | 57.80930 | 33.85971 | 39953 ft | 494 kts | 317° |
| 2026-05-06 13:08 | 57.86298 | 33.77898 | 39959 ft | 494 kts | 317° |
| 2026-05-06 13:08 | 57.91654 | 33.69797 | 39960 ft | 494 kts | 316° |
| 2026-05-06 13:09 | 57.96998 | 33.61674 | 39964 ft | 494 kts | 316° |
| 2026-05-06 13:09 | 58.02340 | 33.53529 | 39968 ft | 494 kts | 316° |
| 2026-05-06 13:10 | 58.07674 | 33.45359 | 39972 ft | 494 kts | 316° |
| 2026-05-06 13:10 | 58.13001 | 33.37171 | 39972 ft | 494 kts | 316° |
| 2026-05-06 13:11 | 58.18320 | 33.28960 | 39977 ft | 493 kts | 316° |
| 2026-05-06 13:11 | 58.23640 | 33.20723 | 39972 ft | 493 kts | 316° |
| 2026-05-06 13:12 | 58.28948 | 33.12473 | 39973 ft | 491 kts | 316° |
| 2026-05-06 13:12 | 58.31559 | 33.08409 | 39637 ft | 483 kts | 316° |
| 2026-05-06 13:12 | 58.34136 | 33.04382 | 39239 ft | 477 kts | 315° |
| 2026-05-06 13:12 | 58.36681 | 33.00397 | 38860 ft | 471 kts | 315° |
| 2026-05-06 13:13 | 58.39193 | 32.96458 | 38448 ft | 464 kts | 315° |
| 2026-05-06 13:13 | 58.41671 | 32.92567 | 37961 ft | 458 kts | 315° |
| 2026-05-06 13:13 | 58.44115 | 32.88720 | 37467 ft | 452 kts | 315° |
| 2026-05-06 13:13 | 58.46526 | 32.84917 | 37001 ft | 446 kts | 314° |
| 2026-05-06 13:14 | 58.48903 | 32.81161 | 36539 ft | 441 kts | 314° |
| 2026-05-06 13:14 | 58.51242 | 32.77464 | 35910 ft | 428 kts | 314° |
| 2026-05-06 13:14 | 58.53524 | 32.73850 | 34626 ft | 422 kts | 313° |
| 2026-05-06 13:14 | 58.55740 | 32.70332 | 33613 ft | 407 kts | 312° |
| 2026-05-06 13:15 | 58.57893 | 32.66905 | 32318 ft | 398 kts | 312° |
| 2026-05-06 13:15 | 58.60000 | 32.63541 | 31065 ft | 389 kts | 312° |
| 2026-05-06 13:15 | 58.62057 | 32.60257 | 29833 ft | 382 kts | 312° |
| 2026-05-06 13:15 | 58.64045 | 32.57094 | 29508 ft | 367 kts | 311° |
| 2026-05-06 13:16 | 58.65991 | 32.53959 | 29017 ft | 370 kts | 311° |
| 2026-05-06 13:16 | 58.67968 | 32.50775 | 28509 ft | 371 kts | 311° |
| 2026-05-06 13:16 | 58.69940 | 32.47621 | 27949 ft | 366 kts | 311° |
| 2026-05-06 13:16 | 58.71883 | 32.44510 | 27423 ft | 361 kts | 311° |
| 2026-05-06 13:17 | 58.73795 | 32.41426 | 26883 ft | 357 kts | 311° |
| 2026-05-06 13:17 | 58.75692 | 32.38354 | 26368 ft | 356 kts | 311° |
| 2026-05-06 13:17 | 58.77583 | 32.35299 | 25832 ft | 355 kts | 311° |
| 2026-05-06 13:17 | 58.79473 | 32.32244 | 25320 ft | 353 kts | 311° |
| 2026-05-06 13:18 | 58.81343 | 32.29220 | 24787 ft | 348 kts | 311° |
| 2026-05-06 13:18 | 58.83185 | 32.26231 | 24281 ft | 344 kts | 311° |
| 2026-05-06 13:18 | 58.85011 | 32.23257 | 23745 ft | 343 kts | 311° |
| 2026-05-06 13:18 | 58.86833 | 32.20288 | 23189 ft | 342 kts | 311° |
| 2026-05-06 13:19 | 58.88643 | 32.17341 | 22652 ft | 339 kts | 311° |
| 2026-05-06 13:19 | 58.90438 | 32.14414 | 22145 ft | 336 kts | 311° |
| 2026-05-06 13:19 | 58.92217 | 32.11506 | 21608 ft | 332 kts | 311° |
| 2026-05-06 13:19 | 58.93966 | 32.08648 | 21097 ft | 326 kts | 311° |
| 2026-05-06 13:20 | 58.95692 | 32.05816 | 20567 ft | 324 kts | 311° |
| 2026-05-06 13:20 | 58.97412 | 32.02985 | 20066 ft | 325 kts | 311° |
| 2026-05-06 13:20 | 58.99133 | 32.00158 | 19536 ft | 322 kts | 311° |
| 2026-05-06 13:20 | 59.00829 | 31.97375 | 19029 ft | 317 kts | 311° |
| 2026-05-06 13:21 | 59.02500 | 31.94621 | 18508 ft | 314 kts | 311° |
| 2026-05-06 13:21 | 59.04163 | 31.91870 | 17974 ft | 314 kts | 311° |
| 2026-05-06 13:21 | 59.05260 | 31.90056 | 17621 ft | 313 kts | 311° |
| 2026-05-06 13:21 | 59.07476 | 31.86393 | 16917 ft | 313 kts | 311° |
| 2026-05-06 13:22 | 59.08568 | 31.84587 | 16581 ft | 309 kts | 311° |
| 2026-05-06 13:22 | 59.10188 | 31.81905 | 16066 ft | 305 kts | 311° |
| 2026-05-06 13:22 | 59.11719 | 31.79098 | 15620 ft | 302 kts | 308° |
| 2026-05-06 13:22 | 59.13227 | 31.76237 | 15237 ft | 305 kts | 309° |
| 2026-05-06 13:23 | 59.14753 | 31.73366 | 14835 ft | 305 kts | 309° |
| 2026-05-06 13:23 | 59.16277 | 31.70489 | 14434 ft | 305 kts | 309° |
| 2026-05-06 13:23 | 59.17792 | 31.67610 | 14044 ft | 304 kts | 309° |
| 2026-05-06 13:23 | 59.19305 | 31.64734 | 13629 ft | 303 kts | 309° |
| 2026-05-06 13:24 | 59.20809 | 31.61873 | 13212 ft | 301 kts | 309° |
| 2026-05-06 13:24 | 59.22302 | 31.59032 | 12816 ft | 299 kts | 309° |
| 2026-05-06 13:24 | 59.23787 | 31.56200 | 12429 ft | 298 kts | 310° |
| 2026-05-06 13:24 | 59.25264 | 31.53379 | 12049 ft | 295 kts | 310° |
| 2026-05-06 13:25 | 59.26707 | 31.50628 | 11648 ft | 284 kts | 310° |
| 2026-05-06 13:25 | 59.28094 | 31.47974 | 11276 ft | 274 kts | 310° |
| 2026-05-06 13:25 | 59.29430 | 31.45408 | 10925 ft | 265 kts | 310° |
| 2026-05-06 13:25 | 59.30732 | 31.42901 | 10579 ft | 261 kts | 310° |
| 2026-05-06 13:26 | 59.32026 | 31.40409 | 10238 ft | 261 kts | 311° |
| 2026-05-06 13:26 | 59.33304 | 31.37954 | 9899 ft | 254 kts | 311° |
| 2026-05-06 13:26 | 59.34553 | 31.35547 | 9539 ft | 250 kts | 311° |
| 2026-05-06 13:26 | 59.35790 | 31.33160 | 9202 ft | 249 kts | 311° |
| 2026-05-06 13:27 | 59.37026 | 31.30770 | 8875 ft | 250 kts | 312° |
| 2026-05-06 13:27 | 59.38264 | 31.28377 | 8561 ft | 250 kts | 312° |
| 2026-05-06 13:27 | 59.39504 | 31.25977 | 8236 ft | 250 kts | 312° |
| 2026-05-06 13:27 | 59.40740 | 31.23585 | 7898 ft | 249 kts | 313° |
| 2026-05-06 13:28 | 59.41975 | 31.21192 | 7589 ft | 250 kts | 313° |
| 2026-05-06 13:28 | 59.43193 | 31.18825 | 7244 ft | 249 kts | 313° |
| 2026-05-06 13:28 | 59.44421 | 31.16437 | 6929 ft | 248 kts | 314° |
| 2026-05-06 13:28 | 59.45652 | 31.14047 | 6596 ft | 248 kts | 313° |
| 2026-05-06 13:29 | 59.46872 | 31.11669 | 6259 ft | 246 kts | 314° |
| 2026-05-06 13:29 | 59.48083 | 31.09304 | 5918 ft | 244 kts | 314° |
| 2026-05-06 13:29 | 59.49275 | 31.06978 | 5605 ft | 239 kts | 314° |
| 2026-05-06 13:29 | 59.50446 | 31.04691 | 5289 ft | 235 kts | 314° |
| 2026-05-06 13:30 | 59.51596 | 31.02442 | 4995 ft | 231 kts | 314° |
| 2026-05-06 13:30 | 59.52702 | 31.00278 | 4935 ft | 219 kts | 314° |
| 2026-05-06 13:30 | 59.53778 | 30.98170 | 4928 ft | 219 kts | 314° |
| 2026-05-06 13:30 | 59.54855 | 30.96053 | 4919 ft | 218 kts | 314° |
| 2026-05-06 13:31 | 59.55939 | 30.93922 | 4916 ft | 221 kts | 314° |
| 2026-05-06 13:31 | 59.57026 | 30.91789 | 4914 ft | 221 kts | 314° |
| 2026-05-06 13:31 | 59.58119 | 30.89639 | 4794 ft | 221 kts | 314° |
| 2026-05-06 13:31 | 59.59210 | 30.87489 | 4678 ft | 222 kts | 314° |
| 2026-05-06 13:32 | 59.60297 | 30.85342 | 4499 ft | 218 kts | 314° |
| 2026-05-06 13:32 | 59.61367 | 30.83235 | 4353 ft | 218 kts | 314° |
| 2026-05-06 13:32 | 59.62435 | 30.81127 | 4186 ft | 216 kts | 314° |
| 2026-05-06 13:32 | 59.63501 | 30.79021 | 4039 ft | 218 kts | 314° |
| 2026-05-06 13:33 | 59.64565 | 30.76912 | 3922 ft | 215 kts | 314° |
| 2026-05-06 13:33 | 59.65628 | 30.74816 | 3734 ft | 216 kts | 314° |
| 2026-05-06 13:33 | 59.66677 | 30.72723 | 3596 ft | 215 kts | 314° |
| 2026-05-06 13:33 | 59.67735 | 30.70624 | 3491 ft | 217 kts | 314° |
| 2026-05-06 13:34 | 59.68803 | 30.68503 | 3301 ft | 215 kts | 314° |
| 2026-05-06 13:34 | 59.69843 | 30.66434 | 3159 ft | 211 kts | 314° |
| 2026-05-06 13:34 | 59.70886 | 30.64356 | 3015 ft | 213 kts | 314° |
| 2026-05-06 13:34 | 59.71934 | 30.62278 | 2875 ft | 213 kts | 314° |
| 2026-05-06 13:35 | 59.72963 | 30.60217 | 2704 ft | 210 kts | 314° |
| 2026-05-06 13:35 | 59.73945 | 30.58256 | 2572 ft | 192 kts | 314° |
| 2026-05-06 13:35 | 59.74782 | 30.56316 | 2479 ft | 175 kts | 297° |
| 2026-05-06 13:35 | 59.75145 | 30.54191 | 2483 ft | 153 kts | 287° |
| 2026-05-06 13:36 | 59.75446 | 30.52271 | 2450 ft | 140 kts | 287° |
| 2026-05-06 13:36 | 59.75715 | 30.50513 | 2491 ft | 131 kts | 287° |
| 2026-05-06 13:36 | 59.75983 | 30.48717 | 2292 ft | 131 kts | 287° |
| 2026-05-06 13:36 | 59.76242 | 30.46966 | 2147 ft | 134 kts | 285° |
| 2026-05-06 13:37 | 59.76499 | 30.45199 | 1915 ft | 133 kts | 288° |
| 2026-05-06 13:37 | 59.76772 | 30.43465 | 1749 ft | 132 kts | 287° |
| 2026-05-06 13:37 | 59.77027 | 30.41716 | 1572 ft | 131 kts | 288° |
| 2026-05-06 13:37 | 59.77286 | 30.39981 | 1387 ft | 131 kts | 286° |
| 2026-05-06 13:38 | 59.77543 | 30.38244 | 1168 ft | 134 kts | 286° |
| 2026-05-06 13:38 | 59.77815 | 30.36460 | 1005 ft | 135 kts | 289° |
| 2026-05-06 13:38 | 59.78067 | 30.34702 | 793 ft | 133 kts | 289° |
| 2026-05-06 13:38 | 59.78346 | 30.32916 | 629 ft | 140 kts | 290° |
| 2026-05-06 13:39 | 59.78610 | 30.31060 | 410 ft | 139 kts | 288° |
| 2026-05-06 13:39 | 59.78890 | 30.29246 | 241 ft | 138 kts | 289° |
| 2026-05-06 13:39 | 59.79157 | 30.27408 | 105 ft | 135 kts | 289° |
| 2026-05-06 13:39 | 59.79396 | 30.25825 | 93 ft | 94 kts | 287° |
| 2026-05-06 13:40 | 59.79534 | 30.24896 | 91 ft | 49 kts | 287° |
| 2026-05-06 13:40 | 59.79619 | 30.24327 | 90 ft | 40 kts | 286° |
| 2026-05-06 13:40 | 59.79694 | 30.23834 | 88 ft | 35 kts | 288° |
| 2026-05-06 13:40 | 59.79774 | 30.23402 | 89 ft | 32 kts | 294° |
| 2026-05-06 13:41 | 59.79892 | 30.23078 | 90 ft | 26 kts | 320° |
| 2026-05-06 13:41 | 59.79964 | 30.23046 | 87 ft | 1 kts | 33° |
| 2026-05-06 13:41 | 59.79968 | 30.23062 | 87 ft | 3 kts | 62° |
| 2026-05-06 13:41 | 59.79972 | 30.23133 | 88 ft | 10 kts | 96° |
| 2026-05-06 13:42 | 59.79937 | 30.23398 | 88 ft | 31 kts | 105° |
| 2026-05-06 13:42 | 59.79878 | 30.23807 | 88 ft | 31 kts | 107° |
| 2026-05-06 13:42 | 59.79817 | 30.24222 | 89 ft | 33 kts | 105° |
| 2026-05-06 13:42 | 59.79750 | 30.24662 | 91 ft | 33 kts | 106° |
| 2026-05-06 13:43 | 59.79691 | 30.25098 | 89 ft | 32 kts | 106° |
| 2026-05-06 13:43 | 59.79623 | 30.25518 | 91 ft | 32 kts | 107° |
| 2026-05-06 13:43 | 59.79564 | 30.25932 | 90 ft | 31 kts | 106° |
| 2026-05-06 13:43 | 59.79533 | 30.26235 | 92 ft | 6 kts | 72° |
| 2026-05-06 13:44 | 59.79548 | 30.26292 | 92 ft | 3 kts | 56° |
| 2026-05-06 13:44 | 59.79558 | 30.26305 | 91 ft | 3 kts | 37° |
| 2026-05-06 13:44 | 59.79575 | 30.26325 | 93 ft | 2 kts | 25° |
| 2026-05-06 13:44 | 59.79605 | 30.26347 | 91 ft | 8 kts | 18° |
| 2026-05-06 13:45 | 59.79685 | 30.26397 | 90 ft | 18 kts | 17° |
| 2026-05-06 13:45 | 59.79909 | 30.26533 | 89 ft | 1 kts | 28° |
| 2026-05-06 13:45 | 59.79927 | 30.26558 | 90 ft | 3 kts | 40° |
| 2026-05-06 13:46 | 59.79938 | 30.26594 | 91 ft | 3 kts | 66° |
| 2026-05-06 13:46 | 59.79944 | 30.26630 | 92 ft | 2 kts | 72° |
| 2026-05-06 13:46 | 59.79947 | 30.26651 | 91 ft | 1 kts | 78° |
| 2026-05-06 13:46 | 59.79947 | 30.26670 | 90 ft | 4 kts | 90° |
| 2026-05-06 13:47 | 59.79945 | 30.26752 | 91 ft | 0 kts | 93° |